Time;durP1;ratioP1;P1;durP2;ratioP2;P2;SDS_P1;SDS_P2;PMS_P1;PMS_P2;Temp;Humidity;BMP_temperature;BMP_pressure;BME280_temperature;BME280_humidity;BME280_pressure;Samples;Min_cycle;Max_cycle;Signal;HPM_P1;HPM_P2
2022/11/30 00:00:12;;;;;;;4.23;3.83;;;6.20;99.90;;;;;;5001653;28;20194;-87
2022/11/30 00:02:38;;;;;;;3.17;2.73;;;6.30;99.90;;;;;;5003709;28;20249;-88
2022/11/30 00:05:04;;;;;;;4.17;3.73;;;6.50;99.90;;;;;;4987667;28;20214;-88
2022/11/30 00:07:30;;;;;;;5.27;4.10;;;6.60;99.90;;;;;;5003449;28;20227;-87
2022/11/30 00:09:56;;;;;;;5.40;4.37;;;6.60;99.90;;;;;;5002305;28;20217;-87
2022/11/30 00:12:22;;;;;;;12.27;6.47;;;6.70;99.90;;;;;;5019312;28;20718;-88
2022/11/30 00:14:47;;;;;;;4.30;3.90;;;6.70;99.90;;;;;;5003004;28;20958;-87
2022/11/30 00:17:13;;;;;;;6.83;3.67;;;6.80;99.90;;;;;;5018192;28;20218;-87
2022/11/30 00:19:39;;;;;;;6.70;6.00;;;6.80;99.90;;;;;;4983123;28;20334;-88
2022/11/30 00:22:05;;;;;;;7.10;4.33;;;6.90;99.90;;;;;;5000495;28;20757;-88
2022/11/30 00:24:30;;;;;;;4.33;3.93;;;6.90;99.90;;;;;;4982014;28;20194;-88
2022/11/30 00:26:56;;;;;;;4.83;4.43;;;6.90;99.90;;;;;;4982436;28;20221;-86
2022/11/30 00:29:22;;;;;;;3.87;3.47;;;7.00;99.90;;;;;;5000698;28;20222;-87
2022/11/30 00:31:47;;;;;;;5.20;3.43;;;7.00;99.90;;;;;;4985052;28;20226;-87
2022/11/30 00:34:13;;;;;;;4.60;2.47;;;7.00;99.90;;;;;;5002752;28;20221;-86
2022/11/30 00:36:39;;;;;;;5.23;2.17;;;6.80;99.90;;;;;;5018437;28;20244;-89
2022/11/30 00:39:04;;;;;;;4.50;2.57;;;6.70;99.90;;;;;;5003812;28;20197;-87
2022/11/30 00:41:30;;;;;;;4.27;3.10;;;6.60;99.90;;;;;;5035385;28;20222;-89
2022/11/30 00:43:56;;;;;;;2.80;2.63;;;6.50;99.90;;;;;;5019018;28;20218;-89
2022/11/30 00:46:22;;;;;;;4.33;3.90;;;6.40;99.90;;;;;;5002111;28;20275;-89
2022/11/30 00:48:47;;;;;;;3.37;3.07;;;6.40;99.90;;;;;;5036705;28;20321;-89
2022/11/30 00:51:13;;;;;;;2.83;2.63;;;6.50;99.90;;;;;;5020816;28;20186;-88
2022/11/30 00:53:40;;;;;;;3.60;3.30;;;6.80;99.90;;;;;;5018867;28;20229;-89
2022/11/30 00:56:07;;;;;;;6.03;3.63;;;7.00;99.90;;;;;;5019885;28;21047;-89
2022/11/30 00:58:33;;;;;;;5.70;5.13;;;7.10;99.90;;;;;;4999427;28;20582;-86
2022/11/30 01:00:59;;;;;;;11.63;4.93;;;7.10;99.90;;;;;;5004431;28;20309;-88
2022/11/30 01:03:25;;;;;;;6.57;5.67;;;7.20;99.90;;;;;;5000376;28;21005;-87
2022/11/30 01:05:51;;;;;;;8.13;4.30;;;7.20;99.90;;;;;;5001708;28;20267;-87
2022/11/30 01:08:16;;;;;;;4.30;3.80;;;7.20;99.90;;;;;;5001654;28;20306;-87
2022/11/30 01:10:43;;;;;;;9.43;5.53;;;7.40;99.90;;;;;;5003691;28;20222;-89
2022/11/30 01:13:11;;;;;;;12.87;5.80;;;7.50;99.90;;;;;;5036412;28;20221;-86
2022/11/30 01:15:42;;;;;;;7.90;5.87;;;7.50;99.90;;;;;;5019164;28;20186;-86
2022/11/30 01:18:07;;;;;;;7.83;5.87;;;7.60;99.90;;;;;;5037155;28;20211;-89
2022/11/30 01:20:33;;;;;;;7.27;5.93;;;7.70;99.90;;;;;;5033421;28;20534;-88
2022/11/30 01:22:59;;;;;;;8.43;6.00;;;7.70;99.90;;;;;;5019230;28;20550;-89
2022/11/30 01:25:24;;;;;;;9.77;6.40;;;7.80;99.90;;;;;;5018702;28;20572;-88
2022/11/30 01:27:51;;;;;;;10.97;5.47;;;7.80;99.90;;;;;;5002198;28;20246;-88
2022/11/30 01:30:17;;;;;;;11.17;7.50;;;7.60;99.90;;;;;;5027221;28;20597;-88
2022/11/30 01:32:43;;;;;;;3.77;3.23;;;7.60;99.90;;;;;;5036311;28;20222;-89
2022/11/30 01:35:09;;;;;;;8.60;5.37;;;7.70;99.90;;;;;;4986644;28;20220;-89
2022/11/30 01:37:35;;;;;;;5.10;4.47;;;7.70;99.90;;;;;;5033659;28;20226;-89
2022/11/30 01:40:01;;;;;;;8.40;6.77;;;7.80;99.90;;;;;;5021830;28;20329;-88
2022/11/30 01:42:27;;;;;;;7.90;5.37;;;7.80;99.90;;;;;;5018738;28;20274;-89
2022/11/30 01:44:55;;;;;;;8.63;5.67;;;7.70;99.90;;;;;;5002824;28;20632;-87
2022/11/30 01:47:39;;;;;;;7.93;4.93;;;7.70;99.90;;;;;;5017473;28;20221;-86
2022/11/30 01:50:13;;;;;;;5.53;3.20;;;7.70;99.90;;;;;;5017650;28;20338;-89
2022/11/30 01:52:42;;;;;;;4.93;4.10;;;7.60;99.90;;;;;;5016759;28;20225;-87
2022/11/30 01:55:31;;;;;;;4.67;3.63;;;7.30;99.90;;;;;;5021811;28;20218;-86
2022/11/30 01:57:59;;;;;;;3.07;2.70;;;7.10;99.90;;;;;;5040167;28;20226;-88
2022/11/30 02:00:24;;;;;;;6.00;3.30;;;7.00;99.90;;;;;;5039136;28;21135;-89
2022/11/30 02:03:18;;;;;;;5.33;3.43;;;6.90;99.90;;;;;;5005189;28;20246;-89
2022/11/30 02:05:45;;;;;;;3.50;2.60;;;7.00;99.90;;;;;;5041101;28;20222;-88
2022/11/30 02:08:11;;;;;;;3.30;3.10;;;7.10;99.90;;;;;;4990242;28;20234;-89
2022/11/30 02:10:51;;;;;;;3.27;3.07;;;7.20;99.90;;;;;;5022013;28;20241;-88
2022/11/30 02:13:46;;;;;;;6.30;4.30;;;7.20;99.90;;;;;;5024588;28;20224;-89
2022/11/30 02:16:25;;;;;;;6.33;5.03;;;7.20;99.90;;;;;;5021471;28;20279;-89
2022/11/30 02:19:32;;;;;;;3.30;3.00;;;7.20;99.90;;;;;;5038622;28;20793;-89
2022/11/30 02:22:23;;;;;;;6.00;4.33;;;7.30;99.90;;;;;;4990192;28;20683;-89
2022/11/30 02:25:20;;;;;;;5.20;2.93;;;7.30;99.90;;;;;;5021630;28;20233;-90
2022/11/30 02:28:16;;;;;;;2.87;2.70;;;7.30;99.90;;;;;;5020390;28;20298;-88
2022/11/30 02:30:47;;;;;;;3.97;3.67;;;7.00;99.90;;;;;;5021655;28;20237;-89
2022/11/30 02:33:21;;;;;;;3.00;2.77;;;6.90;99.90;;;;;;5022728;28;20200;-89
2022/11/30 02:35:50;;;;;;;4.03;2.97;;;6.80;99.90;;;;;;5019649;28;20210;-89
2022/11/30 02:38:20;;;;;;;6.30;2.90;;;6.70;99.90;;;;;;5023051;28;20316;-89
2022/11/30 02:40:46;;;;;;;4.93;4.43;;;6.70;99.90;;;;;;5038050;28;20229;-88
2022/11/30 02:43:12;;;;;;;4.47;4.07;;;6.60;99.90;;;;;;5021719;28;20218;-89
2022/11/30 02:45:49;;;;;;;4.73;3.13;;;6.60;99.90;;;;;;5006018;28;20198;-88
2022/11/30 02:48:19;;;;;;;3.70;3.03;;;6.60;99.90;;;;;;5038180;28;20213;-89
2022/11/30 02:50:49;;;;;;;6.60;2.63;;;6.70;99.90;;;;;;5021218;28;20556;-89
2022/11/30 02:53:15;;;;;;;3.97;2.40;;;6.70;99.90;;;;;;5038520;28;20230;-88
2022/11/30 02:55:41;;;;;;;5.43;4.27;;;6.60;99.90;;;;;;4987209;28;20226;-89
2022/11/30 02:58:06;;;;;;;4.63;3.67;;;6.60;99.90;;;;;;5022227;28;20226;-88
2022/11/30 03:00:32;;;;;;;4.30;3.90;;;6.60;99.90;;;;;;5020685;28;20244;-90
2022/11/30 03:02:58;;;;;;;5.87;2.90;;;6.60;99.90;;;;;;5003238;28;20658;-89
2022/11/30 03:05:24;;;;;;;10.10;3.33;;;6.50;99.90;;;;;;5002968;28;20292;-88
2022/11/30 03:07:50;;;;;;;4.10;3.00;;;6.50;99.90;;;;;;5019909;28;21143;-89
2022/11/30 03:10:16;;;;;;;4.87;3.23;;;6.40;99.90;;;;;;5002541;28;20221;-88
2022/11/30 03:12:41;;;;;;;9.17;3.63;;;6.40;99.90;;;;;;5038135;28;20278;-87
2022/11/30 03:15:07;;;;;;;4.70;4.30;;;6.40;99.90;;;;;;5006651;28;20201;-88
2022/11/30 03:17:33;;;;;;;5.33;4.00;;;6.40;99.90;;;;;;4989198;28;20276;-88
2022/11/30 03:19:59;;;;;;;2.63;2.40;;;6.30;99.90;;;;;;5019796;28;20687;-88
2022/11/30 03:22:25;;;;;;;3.33;3.10;;;6.20;99.90;;;;;;5018918;28;20228;-88
2022/11/30 03:24:51;;;;;;;2.50;2.37;;;6.10;99.90;;;;;;5003212;28;20219;-88
2022/11/30 03:27:17;;;;;;;3.47;3.17;;;6.00;99.90;;;;;;5019340;28;20186;-89
2022/11/30 03:29:42;;;;;;;7.90;4.23;;;6.00;99.90;;;;;;5019795;28;20721;-88
2022/11/30 03:32:08;;;;;;;5.23;4.80;;;5.90;99.90;;;;;;4987066;28;20293;-88
2022/11/30 03:34:34;;;;;;;4.70;3.57;;;5.90;99.90;;;;;;5020114;28;20727;-87
2022/11/30 03:36:59;;;;;;;5.37;4.87;;;5.90;99.90;;;;;;5020425;28;20218;-88
2022/11/30 03:39:25;;;;;;;3.63;3.33;;;6.00;99.90;;;;;;5003448;28;20199;-87
2022/11/30 03:41:51;;;;;;;4.73;4.27;;;6.00;99.90;;;;;;5018744;28;20201;-88
2022/11/30 03:44:17;;;;;;;5.97;5.37;;;6.00;99.90;;;;;;5002664;28;20227;-87
2022/11/30 03:46:43;;;;;;;4.57;3.10;;;6.00;99.90;;;;;;5004327;28;20703;-87
2022/11/30 03:49:08;;;;;;;4.83;2.27;;;6.00;99.90;;;;;;5003927;28;20740;-88
2022/11/30 03:51:34;;;;;;;3.20;2.90;;;5.80;99.90;;;;;;5001499;28;20189;-87
2022/11/30 03:54:00;;;;;;;1.47;1.37;;;5.70;99.90;;;;;;5020537;28;20218;-88
2022/11/30 03:56:26;;;;;;;5.10;3.27;;;5.70;99.90;;;;;;5002695;28;20584;-88
2022/11/30 03:58:52;;;;;;;7.43;3.77;;;5.60;99.90;;;;;;5020936;28;20305;-87
2022/11/30 04:01:21;;;;;;;2.87;2.10;;;5.60;99.90;;;;;;5036350;28;20217;-87
2022/11/30 04:03:48;;;;;;;4.03;3.20;;;5.70;99.90;;;;;;5026822;28;20230;-87
2022/11/30 04:06:15;;;;;;;17.23;4.77;;;5.60;99.90;;;;;;5020360;28;20205;-87
2022/11/30 04:08:41;;;;;;;5.20;3.47;;;5.60;99.90;;;;;;5017887;28;20591;-87
2022/11/30 04:11:08;;;;;;;3.67;3.37;;;5.70;99.90;;;;;;5018945;28;20228;-88
2022/11/30 04:13:36;;;;;;;7.13;4.30;;;5.80;99.90;;;;;;5019985;28;20305;-87
2022/11/30 04:16:02;;;;;;;4.43;3.27;;;5.70;99.90;;;;;;5017356;28;20379;-88
2022/11/30 04:18:29;;;;;;;6.57;4.57;;;5.80;99.90;;;;;;5018854;28;20199;-88
2022/11/30 04:20:57;;;;;;;4.60;3.60;;;5.80;99.90;;;;;;5002880;28;20527;-87
2022/11/30 04:23:25;;;;;;;5.97;3.83;;;5.90;99.90;;;;;;5017889;28;20213;-88
2022/11/30 04:25:51;;;;;;;3.80;3.23;;;5.80;99.90;;;;;;5036909;28;20309;-87
2022/11/30 04:28:17;;;;;;;2.57;2.37;;;5.70;99.90;;;;;;5002610;28;20688;-86
2022/11/30 04:30:45;;;;;;;9.43;5.70;;;5.60;99.90;;;;;;5019316;28;20225;-87
2022/11/30 04:33:12;;;;;;;6.40;5.77;;;5.80;99.90;;;;;;5018748;28;20977;-87
2022/11/30 04:35:53;;;;;;;8.73;6.60;;;5.90;99.90;;;;;;5036001;28;20217;-88
2022/11/30 04:38:18;;;;;;;9.77;5.17;;;5.90;99.90;;;;;;5019575;28;20232;-85
2022/11/30 04:40:44;;;;;;;5.50;4.47;;;6.00;99.90;;;;;;5014427;28;20218;-87
2022/11/30 04:43:11;;;;;;;5.07;2.43;;;5.90;99.90;;;;;;5032436;28;20314;-87
2022/11/30 04:45:37;;;;;;;9.40;6.60;;;5.90;99.90;;;;;;5013993;28;20228;-87
2022/11/30 04:48:04;;;;;;;8.23;4.23;;;5.90;99.90;;;;;;5032889;28;20206;-88
2022/11/30 04:50:30;;;;;;;7.53;5.47;;;5.80;99.90;;;;;;4997074;28;20221;-88
2022/11/30 04:52:56;;;;;;;8.87;5.80;;;5.40;99.90;;;;;;5037187;28;20226;-87
2022/11/30 04:55:22;;;;;;;4.43;3.13;;;5.20;99.90;;;;;;5019275;28;20228;-88
2022/11/30 04:57:48;;;;;;;5.93;2.13;;;4.90;99.90;;;;;;5018052;28;20222;-87
2022/11/30 05:00:16;;;;;;;4.40;2.23;;;4.40;99.90;;;;;;5003599;28;20276;-88
2022/11/30 05:02:42;;;;;;;3.10;1.97;;;4.10;99.90;;;;;;5000429;28;20261;-87
2022/11/30 05:05:08;;;;;;;19.97;3.43;;;4.10;99.90;;;;;;4994386;28;20705;-87
2022/11/30 05:07:34;;;;;;;21.67;2.67;;;4.00;99.90;;;;;;5037118;28;20222;-87
2022/11/30 05:10:00;;;;;;;3.77;3.43;;;4.00;99.90;;;;;;5019059;28;20235;-88
2022/11/30 05:12:26;;;;;;;2.73;1.77;;;4.00;99.90;;;;;;5018882;28;20248;-87
2022/11/30 05:14:51;;;;;;;8.83;2.87;;;4.10;99.90;;;;;;4986846;28;20206;-87
2022/11/30 05:17:17;;;;;;;2.27;1.77;;;4.10;99.90;;;;;;4985714;28;20297;-87
2022/11/30 05:19:43;;;;;;;2.43;2.00;;;4.30;99.90;;;;;;5017426;28;20222;-88
2022/11/30 05:22:08;;;;;;;4.43;4.03;;;4.40;99.90;;;;;;5002115;28;20219;-87
2022/11/30 05:24:34;;;;;;;5.07;3.30;;;4.50;99.90;;;;;;5017172;28;20191;-87
2022/11/30 05:27:00;;;;;;;1.47;1.37;;;4.60;99.90;;;;;;4984178;28;20402;-87
2022/11/30 05:29:25;;;;;;;2.83;2.20;;;4.70;99.90;;;;;;5003721;28;20230;-88
2022/11/30 05:31:51;;;;;;;1.90;1.40;;;4.80;99.90;;;;;;5007181;28;20710;-88
2022/11/30 05:34:17;;;;;;;2.17;1.90;;;4.80;99.90;;;;;;4991140;28;20213;-89
2022/11/30 05:36:42;;;;;;;3.70;2.00;;;4.70;99.90;;;;;;5024030;28;20224;-87
2022/11/30 05:39:08;;;;;;;3.73;3.00;;;4.70;99.90;;;;;;5004667;28;20217;-88
2022/11/30 05:41:34;;;;;;;3.17;1.90;;;4.80;99.90;;;;;;5000427;28;20262;-86
2022/11/30 05:44:00;;;;;;;2.73;2.53;;;4.90;99.90;;;;;;5034727;28;20271;-86
2022/11/30 05:46:25;;;;;;;6.43;3.87;;;5.00;99.90;;;;;;5021092;28;20253;-85
2022/11/30 05:48:51;;;;;;;5.73;5.17;;;5.00;99.90;;;;;;5019802;28;20225;-86
2022/11/30 05:51:18;;;;;;;5.47;4.43;;;5.10;99.90;;;;;;5017307;28;20186;-85
2022/11/30 05:53:46;;;;;;;4.33;3.97;;;5.10;99.90;;;;;;5038671;28;20263;-87
2022/11/30 05:56:14;;;;;;;4.87;2.57;;;5.20;99.90;;;;;;5029367;28;20696;-87
2022/11/30 05:58:41;;;;;;;5.23;4.57;;;5.30;99.90;;;;;;5022028;28;20268;-86
2022/11/30 06:01:06;;;;;;;5.90;5.33;;;5.30;99.90;;;;;;5037264;28;20305;-85
2022/11/30 06:03:34;;;;;;;3.23;2.83;;;5.30;99.90;;;;;;5021825;28;21231;-86
2022/11/30 06:06:00;;;;;;;2.30;2.20;;;5.30;99.90;;;;;;5029711;28;20193;-86
2022/11/30 06:08:26;;;;;;;3.17;2.63;;;5.20;99.90;;;;;;5005077;28;20233;-87
2022/11/30 06:10:53;;;;;;;2.37;2.13;;;5.10;99.90;;;;;;5021274;28;20222;-87
2022/11/30 06:13:19;;;;;;;4.03;3.73;;;5.20;99.90;;;;;;5004780;28;20679;-88
2022/11/30 06:15:45;;;;;;;2.47;2.27;;;5.10;99.90;;;;;;5038965;28;20361;-89
2022/11/30 06:18:12;;;;;;;2.03;1.80;;;4.90;99.90;;;;;;5020804;28;20206;-88
2022/11/30 06:20:38;;;;;;;3.07;1.10;;;4.80;99.90;;;;;;5020338;28;20242;-88
2022/11/30 06:23:04;;;;;;;3.03;1.47;;;4.60;99.90;;;;;;5003634;28;20664;-89
2022/11/30 06:25:30;;;;;;;3.10;1.87;;;4.40;99.90;;;;;;5005364;28;20221;-88
2022/11/30 06:27:56;;;;;;;3.27;2.30;;;4.40;99.90;;;;;;5021238;28;20236;-86
2022/11/30 06:30:22;;;;;;;2.63;2.30;;;4.30;99.90;;;;;;5020068;28;20218;-87
2022/11/30 06:32:49;;;;;;;1.67;1.57;;;4.20;99.90;;;;;;5002939;28;20818;-87
2022/11/30 06:35:15;;;;;;;6.80;2.50;;;4.20;99.90;;;;;;5029920;28;20241;-87
2022/11/30 06:37:41;;;;;;;1.90;1.80;;;4.20;99.90;;;;;;5038965;28;20293;-90
2022/11/30 06:40:09;;;;;;;1.43;1.33;;;4.10;99.90;;;;;;4987802;28;20215;-90
2022/11/30 06:42:36;;;;;;;5.27;2.73;;;4.10;99.90;;;;;;5022861;28;20186;-89
2022/11/30 06:45:02;;;;;;;2.37;2.20;;;4.20;99.90;;;;;;5004087;28;20200;-86
2022/11/30 06:47:27;;;;;;;2.13;2.03;;;4.20;99.90;;;;;;5003810;28;20214;-88
2022/11/30 06:49:53;;;;;;;2.63;1.63;;;4.10;99.90;;;;;;5019082;28;20222;-88
2022/11/30 06:52:19;;;;;;;2.53;1.67;;;4.20;99.90;;;;;;5017724;28;20297;-87
2022/11/30 06:54:45;;;;;;;3.33;3.03;;;4.20;99.90;;;;;;5016592;28;20230;-86
2022/11/30 06:57:11;;;;;;;1.97;1.83;;;4.20;99.90;;;;;;5004801;28;20228;-88
2022/11/30 06:59:41;;;;;;;2.20;2.00;;;4.20;99.90;;;;;;5039690;28;20210;-88
2022/11/30 07:02:14;;;;;;;4.53;3.57;;;4.30;99.90;;;;;;4999229;28;20243;-87
2022/11/30 07:04:40;;;;;;;5.13;3.83;;;4.40;99.90;;;;;;5015963;28;20223;-88
2022/11/30 07:07:06;;;;;;;4.43;3.23;;;4.40;99.90;;;;;;5000222;28;20233;-85
2022/11/30 07:09:35;;;;;;;2.43;2.30;;;4.50;99.90;;;;;;5000819;28;20663;-86
2022/11/30 07:12:03;;;;;;;4.00;2.03;;;4.60;99.90;;;;;;5011751;28;20442;-84
2022/11/30 07:14:29;;;;;;;2.50;1.37;;;4.40;99.90;;;;;;5015047;28;20223;-86
2022/11/30 07:16:56;;;;;;;2.27;2.10;;;4.30;99.90;;;;;;5015415;28;20681;-87
2022/11/30 07:19:22;;;;;;;5.90;2.93;;;4.10;99.90;;;;;;5016401;28;20288;-85
2022/11/30 07:21:48;;;;;;;1.97;1.73;;;4.00;99.90;;;;;;5015001;28;20219;-87
2022/11/30 07:27:00;;;;;;;2.07;1.97;;;4.10;99.90;;;;;;5010717;28;20203;-84
2022/11/30 07:29:26;;;;;;;3.77;2.90;;;4.10;99.90;;;;;;5011287;28;20240;-85
2022/11/30 07:31:53;;;;;;;8.10;5.37;;;4.20;99.90;;;;;;5012845;28;20313;-84
2022/11/30 07:34:19;;;;;;;5.03;2.93;;;4.30;99.90;;;;;;5015876;28;20744;-85
2022/11/30 07:36:46;;;;;;;4.40;3.60;;;4.30;99.90;;;;;;5011757;28;20226;-87
2022/11/30 07:39:12;;;;;;;5.07;4.63;;;4.30;99.90;;;;;;5013574;28;20214;-91
2022/11/30 07:41:39;;;;;;;2.90;2.80;;;4.40;99.90;;;;;;5012067;28;20229;-91
2022/11/30 07:44:06;;;;;;;3.47;2.37;;;4.60;99.90;;;;;;5013026;28;20266;-86
2022/11/30 07:46:34;;;;;;;10.60;2.77;;;4.60;99.90;;;;;;5012644;28;20218;-86
2022/11/30 07:49:04;;;;;;;11.00;3.83;;;4.60;99.90;;;;;;5013298;28;20314;-88
2022/11/30 07:51:31;;;;;;;1.50;1.47;;;4.60;99.90;;;;;;4998181;28;20282;-87
2022/11/30 07:53:57;;;;;;;3.23;3.00;;;4.60;99.90;;;;;;5015506;28;20191;-94
2022/11/30 07:56:23;;;;;;;3.23;2.30;;;4.60;99.90;;;;;;5012704;28;20295;-94
2022/11/30 07:58:54;;;;;;;2.80;2.63;;;4.50;99.90;;;;;;5013744;28;20751;-91
2022/11/30 08:01:24;;;;;;;1.50;1.50;;;4.50;99.90;;;;;;5015157;28;20321;-91
2022/11/30 08:03:51;;;;;;;1.53;1.43;;;4.50;99.90;;;;;;5015220;28;20227;-91
2022/11/30 08:06:19;;;;;;;4.13;3.73;;;4.50;99.90;;;;;;5032451;28;20240;-91
2022/11/30 08:08:46;;;;;;;6.40;5.97;;;4.60;99.90;;;;;;5017004;28;20227;-90
2022/11/30 08:11:14;;;;;;;1.43;1.43;;;4.60;99.90;;;;;;5018345;28;20234;-90
2022/11/30 08:13:41;;;;;;;2.07;1.97;;;4.70;99.90;;;;;;5017021;28;20222;-91
2022/11/30 08:16:10;;;;;;;2.57;2.40;;;4.80;99.90;;;;;;5015146;28;20219;-91
2022/11/30 08:18:35;;;;;;;1.90;1.80;;;4.90;99.90;;;;;;5014344;28;20637;-90
2022/11/30 08:21:04;;;;;;;9.30;4.10;;;5.00;99.90;;;;;;5027015;28;20187;-91
2022/11/30 08:23:32;;;;;;;2.90;2.53;;;5.10;99.90;;;;;;5030563;28;20283;-88
2022/11/30 08:26:05;;;;;;;2.73;2.53;;;5.20;99.90;;;;;;5030824;28;20215;-91
2022/11/30 08:28:31;;;;;;;2.67;2.47;;;5.20;99.90;;;;;;5012924;28;20901;-91
2022/11/30 08:31:05;;;;;;;3.93;3.07;;;5.20;99.90;;;;;;4993173;28;20250;-90
2022/11/30 08:33:31;;;;;;;3.23;3.03;;;5.30;99.90;;;;;;4998469;28;20321;-92
2022/11/30 08:36:09;;;;;;;4.23;3.80;;;5.50;99.90;;;;;;5014234;28;20188;-92
2022/11/30 08:38:36;;;;;;;4.50;3.07;;;5.60;99.90;;;;;;5011099;28;20222;-92
2022/11/30 08:41:03;;;;;;;13.57;4.93;;;5.70;99.90;;;;;;5010726;28;20692;-92
2022/11/30 08:43:28;;;;;;;10.00;5.53;;;5.80;99.90;;;;;;4997894;28;20577;-91
2022/11/30 08:45:54;;;;;;;1.93;1.80;;;6.00;99.90;;;;;;4998344;28;20706;-93
2022/11/30 08:48:20;;;;;;;3.83;3.03;;;6.20;99.90;;;;;;4996603;28;20292;-91
2022/11/30 08:50:46;;;;;;;4.30;3.70;;;6.30;99.90;;;;;;4981450;28;20346;-90
2022/11/30 08:53:11;;;;;;;14.43;4.83;;;6.40;99.90;;;;;;4994863;28;20226;-90
2022/11/30 08:55:37;;;;;;;4.50;3.47;;;6.40;99.90;;;;;;5000112;28;21030;-95
2022/11/30 08:58:03;;;;;;;3.77;2.47;;;6.30;99.90;;;;;;4981700;28;20246;-92
2022/11/30 09:00:29;;;;;;;3.60;2.20;;;6.40;99.90;;;;;;5016628;28;20194;-89
2022/11/30 09:02:55;;;;;;;2.57;2.30;;;6.50;99.90;;;;;;5011333;28;20231;-93
2022/11/30 09:05:21;;;;;;;5.67;4.30;;;6.60;99.90;;;;;;4997971;28;20230;-89
2022/11/30 09:07:47;;;;;;;5.33;4.93;;;6.70;99.90;;;;;;5013396;28;20277;-90
2022/11/30 09:10:13;;;;;;;9.27;5.87;;;6.80;99.90;;;;;;4979707;28;20326;-91
2022/11/30 09:12:39;;;;;;;14.77;6.80;;;6.90;99.90;;;;;;5014481;28;20909;-93
2022/11/30 09:15:07;;;;;;;14.63;7.37;;;7.00;99.90;;;;;;5017160;28;20294;-92
2022/11/30 09:17:33;;;;;;;11.07;6.63;;;7.10;99.90;;;;;;4999281;28;20721;-93
2022/11/30 09:19:59;;;;;;;10.93;7.03;;;7.30;99.90;;;;;;4997211;28;20237;-92
2022/11/30 09:22:26;;;;;;;7.70;6.20;;;7.40;99.90;;;;;;5015837;28;20669;-95
2022/11/30 09:24:51;;;;;;;6.83;6.03;;;7.40;99.90;;;;;;5007681;28;20211;-93
2022/11/30 09:27:17;;;;;;;6.07;5.37;;;7.50;99.90;;;;;;5000460;28;20197;-91
2022/11/30 09:29:43;;;;;;;10.13;7.67;;;7.50;99.90;;;;;;5016929;28;20219;-94
2022/11/30 09:32:09;;;;;;;7.73;7.10;;;7.40;99.90;;;;;;5016092;28;20223;-93
2022/11/30 09:34:34;;;;;;;12.63;6.40;;;7.40;99.90;;;;;;5001772;28;20506;-93
2022/11/30 09:37:00;;;;;;;11.97;6.63;;;7.50;99.90;;;;;;4982802;28;20223;-92
2022/11/30 09:39:26;;;;;;;6.73;4.90;;;7.50;99.90;;;;;;4997968;28;20195;-89
2022/11/30 09:42:16;;;;;;;7.40;3.63;;;7.50;99.90;;;;;;4999904;28;20184;-93
2022/11/30 09:45:03;;;;;;;5.97;4.57;;;7.50;99.90;;;;;;5013171;28;20227;-91
2022/11/30 09:48:04;;;;;;;10.40;6.73;;;7.50;99.90;;;;;;5012372;28;20282;-93
2022/11/30 09:50:36;;;;;;;11.93;6.67;;;7.50;99.90;;;;;;5016944;28;20226;-86
2022/11/30 09:53:19;;;;;;;8.50;7.43;;;7.60;99.90;;;;;;5013188;28;20689;-88
2022/11/30 09:55:45;;;;;;;8.27;4.07;;;7.70;99.90;;;;;;5015668;28;20219;-87
2022/11/30 09:58:31;;;;;;;6.87;4.53;;;7.80;99.90;;;;;;5016271;28;20215;-89
2022/11/30 10:00:56;;;;;;;6.03;5.43;;;7.80;99.90;;;;;;5014394;28;20243;-88
2022/11/30 10:03:23;;;;;;;14.20;6.63;;;7.90;99.90;;;;;;4999111;28;20325;-90
2022/11/30 10:06:07;;;;;;;16.77;7.97;;;7.90;99.90;;;;;;4984019;28;21063;-87
2022/11/30 10:08:52;;;;;;;14.80;8.53;;;7.90;99.90;;;;;;5013945;28;20690;-90
2022/11/30 10:11:32;;;;;;;9.67;6.70;;;8.10;99.90;;;;;;5015837;28;20234;-94
2022/11/30 10:14:16;;;;;;;12.53;6.40;;;8.20;99.90;;;;;;5018116;28;20673;-92
2022/11/30 10:17:03;;;;;;;8.07;6.83;;;8.10;99.90;;;;;;5018648;28;20234;-89
2022/11/30 10:19:56;;;;;;;7.23;4.73;;;7.90;99.90;;;;;;5020640;28;20222;-92
2022/11/30 10:22:29;;;;;;;12.03;6.90;;;7.80;99.90;;;;;;5019756;28;20215;-92
2022/11/30 10:25:22;;;;;;;9.70;8.00;;;7.80;99.90;;;;;;5022827;28;20583;-88
2022/11/30 10:28:06;;;;;;;10.73;8.17;;;7.80;99.90;;;;;;5019982;28;20321;-91
2022/11/30 10:30:35;;;;;;;11.10;7.37;;;7.80;99.90;;;;;;5020654;28;20203;-91
2022/11/30 10:33:17;;;;;;;8.07;5.97;;;7.80;99.90;;;;;;5020996;28;20191;-90
2022/11/30 10:35:55;;;;;;;8.80;6.93;;;7.70;99.90;;;;;;5016333;28;20290;-89
2022/11/30 10:38:35;;;;;;;10.40;6.43;;;7.80;99.90;;;;;;5025691;28;20293;-91
2022/11/30 10:41:10;;;;;;;16.57;6.63;;;7.90;99.90;;;;;;5034438;28;20225;-86
2022/11/30 10:43:47;;;;;;;10.13;5.90;;;8.00;99.90;;;;;;5030879;28;20222;-88
2022/11/30 10:46:20;;;;;;;7.93;5.83;;;8.00;99.90;;;;;;5021456;28;20218;-91
2022/11/30 10:48:55;;;;;;;10.33;7.13;;;8.10;99.90;;;;;;5020501;28;20295;-89
2022/11/30 10:51:21;;;;;;;8.40;5.83;;;8.10;99.90;;;;;;5019606;28;20178;-90
2022/11/30 10:53:47;;;;;;;10.07;5.20;;;8.20;99.90;;;;;;4999923;28;20187;-88
2022/11/30 10:56:14;;;;;;;7.47;6.67;;;8.20;99.90;;;;;;5015758;28;20237;-92
2022/11/30 10:59:14;;;;;;;6.57;5.97;;;8.10;99.90;;;;;;5019285;28;20254;-90
2022/11/30 11:01:41;;;;;;;7.77;5.40;;;8.20;99.90;;;;;;4998937;28;20234;-87
2022/11/30 11:04:16;;;;;;;7.50;5.43;;;8.20;99.90;;;;;;5029152;28;20266;-87
2022/11/30 11:06:44;;;;;;;6.90;6.33;;;8.20;99.90;;;;;;5021679;28;20220;-88
2022/11/30 11:09:33;;;;;;;5.17;4.63;;;8.30;99.90;;;;;;5039517;28;20267;-89
2022/11/30 11:12:24;;;;;;;9.57;8.50;;;8.40;99.90;;;;;;5019905;28;20580;-90
2022/11/30 11:15:16;;;;;;;8.23;4.90;;;8.50;99.90;;;;;;5023518;28;20225;-91
2022/11/30 11:17:41;;;;;;;22.77;7.93;;;8.60;99.90;;;;;;5037998;28;20242;-92
2022/11/30 11:20:35;;;;;;;9.40;6.10;;;8.60;99.90;;;;;;5003887;28;20752;-91
2022/11/30 11:23:03;;;;;;;8.50;5.87;;;8.60;99.90;;;;;;5030678;28;20359;-89
2022/11/30 11:25:34;;;;;;;15.20;9.03;;;8.60;99.90;;;;;;5019804;28;20294;-91
2022/11/30 11:28:07;;;;;;;14.80;9.13;;;8.60;99.90;;;;;;5037187;28;20221;-88
2022/11/30 11:30:35;;;;;;;11.53;7.73;;;8.60;99.90;;;;;;5020122;28;20178;-89
2022/11/30 11:33:09;;;;;;;8.97;7.47;;;8.50;99.90;;;;;;5038244;28;20560;-89
2022/11/30 11:35:37;;;;;;;11.53;5.87;;;8.60;99.90;;;;;;5037763;28;20221;-90
2022/11/30 11:38:16;;;;;;;10.83;7.80;;;8.40;99.90;;;;;;5019796;28;20218;-89
2022/11/30 11:40:54;;;;;;;10.30;7.07;;;8.50;99.90;;;;;;5003803;28;20222;-89
2022/11/30 11:43:20;;;;;;;15.70;6.70;;;8.50;99.90;;;;;;5019176;28;20323;-91
2022/11/30 11:45:52;;;;;;;9.37;7.57;;;8.50;99.90;;;;;;5020557;28;20221;-88
2022/11/30 11:48:34;;;;;;;14.03;7.60;;;8.50;99.90;;;;;;5038396;28;20253;-93
2022/11/30 11:51:08;;;;;;;13.03;8.13;;;8.50;99.90;;;;;;5017434;28;20210;-88
2022/11/30 11:54:06;;;;;;;12.90;7.03;;;8.60;99.90;;;;;;5035638;28;20215;-92
2022/11/30 11:56:36;;;;;;;11.47;9.60;;;8.50;99.90;;;;;;5008941;28;20218;-90
2022/11/30 11:59:17;;;;;;;15.07;7.97;;;8.50;99.90;;;;;;5002976;28;20230;-90
2022/11/30 12:02:04;;;;;;;10.30;7.87;;;8.40;99.90;;;;;;5020600;28;20285;-90
2022/11/30 12:04:44;;;;;;;15.10;7.93;;;8.40;99.90;;;;;;5019612;28;20225;-90
2022/11/30 12:07:18;;;;;;;32.37;10.53;;;8.30;99.90;;;;;;5019749;28;20225;-91
2022/11/30 12:09:58;;;;;;;13.57;9.33;;;8.20;99.90;;;;;;5034005;28;20288;-90
2022/11/30 12:12:24;;;;;;;19.93;9.03;;;8.20;99.90;;;;;;5019789;28;20182;-91
2022/11/30 12:14:50;;;;;;;11.70;8.47;;;8.10;99.90;;;;;;5018279;28;21034;-91
2022/11/30 12:17:39;;;;;;;11.17;9.23;;;8.20;99.90;;;;;;4987983;28;20217;-90
2022/11/30 12:20:43;;;;;;;15.07;7.73;;;8.10;99.90;;;;;;5019386;28;20221;-89
2022/11/30 12:23:36;;;;;;;16.60;9.23;;;8.20;99.90;;;;;;5004795;28;20312;-90
2022/11/30 12:26:19;;;;;;;17.37;10.10;;;8.20;99.90;;;;;;5018730;28;20218;-91
2022/11/30 12:29:16;;;;;;;19.17;7.20;;;8.30;99.90;;;;;;5021080;28;20308;-88
2022/11/30 12:32:07;;;;;;;12.07;7.80;;;8.40;99.90;;;;;;5037139;28;20241;-90
2022/11/30 12:34:44;;;;;;;11.37;6.07;;;8.40;99.90;;;;;;5016502;28;20225;-91
2022/11/30 12:37:29;;;;;;;14.90;8.27;;;8.50;99.90;;;;;;5017808;28;20214;-91
2022/11/30 12:39:54;;;;;;;11.07;7.70;;;8.50;99.90;;;;;;5034050;28;20249;-91
2022/11/30 12:42:36;;;;;;;16.43;9.90;;;8.50;99.90;;;;;;5038377;28;20240;-91
2022/11/30 12:45:16;;;;;;;9.63;7.50;;;8.60;99.90;;;;;;5040182;28;20216;-90
2022/11/30 12:47:45;;;;;;;18.93;11.27;;;8.60;99.90;;;;;;5020360;28;20223;-91
2022/11/30 12:50:36;;;;;;;10.03;6.27;;;8.60;99.90;;;;;;5021071;28;20244;-90
2022/11/30 12:53:15;;;;;;;22.70;10.27;;;8.50;99.90;;;;;;5037403;28;20570;-89
2022/11/30 12:56:00;;;;;;;11.53;7.60;;;8.50;99.90;;;;;;5037516;28;20669;-90
2022/11/30 12:58:40;;;;;;;14.03;8.77;;;8.50;99.90;;;;;;5041143;28;20230;-88
2022/11/30 13:01:25;;;;;;;20.73;9.30;;;8.40;99.90;;;;;;5048837;28;20226;-88
2022/11/30 13:04:24;;;;;;;13.93;8.47;;;8.40;99.90;;;;;;5025170;28;20226;-91
2022/11/30 13:06:59;;;;;;;14.20;10.10;;;8.30;99.90;;;;;;5021627;28;20213;-90
2022/11/30 13:09:36;;;;;;;20.07;9.00;;;8.30;99.90;;;;;;5019165;28;20233;-85
2022/11/30 13:12:11;;;;;;;17.03;9.20;;;8.30;99.90;;;;;;5020825;28;20260;-88
2022/11/30 13:14:37;;;;;;;23.40;10.13;;;8.30;99.90;;;;;;5022075;28;20214;-90